Time;durP1;ratioP1;P1;durP2;ratioP2;P2;SDS_P1;SDS_P2;PMS_P1;PMS_P2;Temp;Humidity;BMP_temperature;BMP_pressure;BME280_temperature;BME280_humidity;BME280_pressure;Samples;Min_cycle;Max_cycle;Signal;HPM_P1;HPM_P2
2022/01/13 00:00:39;;;;;;;18.53;13.80;;;;;;;1.92;67.14;103039.56;5030563;28;20623;-79
2022/01/13 00:03:06;;;;;;;17.90;13.27;;;;;;;2.24;66.07;103089.78;5030512;28;20056;-78
2022/01/13 00:05:33;;;;;;;16.17;13.13;;;;;;;2.16;66.12;103092.53;5046465;28;20043;-79
2022/01/13 00:07:59;;;;;;;19.87;13.57;;;;;;;2.08;66.98;103087.38;5030107;28;20099;-78
2022/01/13 00:10:27;;;;;;;18.13;12.73;;;;;;;2.16;65.37;103116.13;5031467;28;20052;-78
2022/01/13 00:13:03;;;;;;;17.33;12.90;;;;;;;2.19;65.44;103126.56;5026084;28;20049;-78
2022/01/13 00:15:48;;;;;;;17.80;12.23;;;;;;;1.30;65.42;102967.94;5026436;28;20136;-79
2022/01/13 00:18:18;;;;;;;20.00;13.07;;;;;;;1.91;65.27;103111.16;5027564;28;20049;-78
2022/01/13 00:26:14;;;;;;;25.40;12.77;;;;;;;1.78;65.11;103099.13;5027310;28;20084;-78
2022/01/13 00:28:44;;;;;;;15.17;12.20;;;;;;;1.80;65.87;103110.44;5027891;28;20053;-78
2022/01/13 00:31:11;;;;;;;14.83;11.97;;;;;;;1.11;65.89;103008.28;5026341;28;20059;-78
2022/01/13 00:33:44;;;;;;;15.00;12.73;;;;;;;1.47;66.55;103093.38;5009684;28;20045;-77
2022/01/13 00:36:10;;;;;;;;;;;;;;;1.46;66.76;103108.22;5010169;28;20045;-80
2022/01/13 00:38:37;;;;;;;18.20;12.40;;;;;;;1.48;66.78;103116.03;5025761;28;20383;-80
2022/01/13 00:41:04;;;;;;;16.37;12.43;;;;;;;1.33;67.18;103067.34;5009677;28;20139;-81
2022/01/13 00:43:32;;;;;;;17.50;12.33;;;;;;;1.58;66.41;103111.56;5027107;28;20472;-80
2022/01/13 00:45:58;;;;;;;20.27;13.27;;;;;;;0.89;67.03;103008.50;5009823;28;20149;-79
2022/01/13 00:48:25;;;;;;;17.33;12.50;;;;;;;1.39;68.50;103101.31;5009543;28;20053;-79
2022/01/13 00:50:52;;;;;;;17.47;12.23;;;;;;;1.37;68.06;103094.34;5009309;28;20497;-79
2022/01/13 00:53:18;;;;;;;17.40;11.20;;;;;;;1.53;67.94;103129.06;5026696;28;20499;-79
2022/01/13 00:55:57;;;;;;;19.70;13.37;;;;;;;1.57;68.14;103136.03;5009281;28;20353;-79
2022/01/13 00:58:32;;;;;;;18.23;11.67;;;;;;;1.54;68.08;103143.91;5009097;28;20057;-79
2022/01/13 01:01:00;;;;;;;16.67;11.87;;;;;;;1.48;67.97;103140.50;5009589;28;20072;-78
2022/01/13 01:03:27;;;;;;;17.30;12.53;;;;;;;1.38;67.55;103117.03;5025220;28;20486;-78
2022/01/13 01:05:55;;;;;;;17.53;12.57;;;;;;;1.46;67.94;103142.25;5025550;28;20077;-80
2022/01/13 01:08:22;;;;;;;18.97;12.93;;;;;;;1.28;68.10;103118.88;5025831;28;20045;-79
2022/01/13 01:10:50;;;;;;;17.73;13.03;;;;;;;1.39;68.67;103143.19;5044278;28;20703;-79
2022/01/13 01:13:21;;;;;;;16.17;12.67;;;;;;;1.41;68.61;103157.13;5046456;28;20048;-79
2022/01/13 01:15:53;;;;;;;18.50;12.13;;;;;;;1.27;68.68;103132.84;5045211;28;20138;-79
2022/01/13 01:26:31;;;;;;;18.00;11.67;;;;;;;1.59;69.02;103166.53;5046162;28;20427;-80
2022/01/13 01:31:50;;;;;;;17.20;12.87;;;;;;;1.53;68.94;103181.44;5046458;28;20492;-80
2022/01/13 01:36:56;;;;;;;17.07;12.00;;;;;;;1.56;67.84;103189.28;5046398;28;20172;-79
2022/01/13 01:39:23;;;;;;;14.80;11.07;;;;;;;1.49;68.08;103191.94;5028563;28;20080;-78
2022/01/13 01:41:52;;;;;;;16.00;11.23;;;;;;;1.19;68.25;103145.13;5045199;28;20150;-79
2022/01/13 01:44:31;;;;;;;13.43;10.60;;;;;;;1.34;68.29;103176.41;5029573;28;20055;-78
2022/01/13 01:47:00;;;;;;;17.93;12.43;;;;;;;1.37;68.77;103160.66;5049229;28;20068;-79
2022/01/13 01:49:27;;;;;;;19.33;12.37;;;;;;;1.38;68.74;103172.84;5048857;28;20102;-78
2022/01/13 01:51:59;;;;;;;14.73;11.93;;;;;;;1.42;68.72;103169.31;5049218;28;20053;-78
2022/01/13 01:54:27;;;;;;;12.87;11.00;;;;;;;1.40;69.00;103186.78;5049125;28;20135;-78
2022/01/13 01:56:54;;;;;;;16.57;11.77;;;;;;;1.32;68.89;103182.53;5048907;28;20411;-78
2022/01/13 01:59:27;;;;;;;13.17;10.40;;;;;;;1.39;68.58;103186.81;5048755;28;20052;-79
2022/01/13 02:01:54;;;;;;;14.23;11.00;;;;;;;0.60;69.18;103055.81;5048532;28;20065;-78
2022/01/13 02:04:24;;;;;;;17.40;12.20;;;;;;;0.84;69.12;103107.91;5048828;28;20053;-78
2022/01/13 02:06:50;;;;;;;17.13;11.40;;;;;;;1.17;68.73;103163.47;5049945;28;20318;-79
2022/01/13 02:09:19;;;;;;;15.10;11.60;;;;;;;1.32;68.30;103186.00;5043181;28;20471;-79
2022/01/13 02:11:52;;;;;;;12.90;10.60;;;;;;;1.33;69.15;103177.25;5012572;28;20642;-79
2022/01/13 02:16:51;;;;;;;15.47;10.97;;;;;;;1.39;69.40;103206.00;5029746;28;20228;-81
2022/01/13 02:19:18;;;;;;;17.10;11.10;;;;;;;1.28;69.21;103165.97;5028821;28;20159;-78
2022/01/13 02:21:45;;;;;;;16.17;10.87;;;;;;;1.20;69.27;103157.34;5011975;28;20412;-79
2022/01/13 02:24:12;;;;;;;14.33;10.97;;;;;;;1.16;69.56;103159.09;5012113;28;20052;-78
2022/01/13 02:26:39;;;;;;;17.33;11.63;;;;;;;1.13;69.45;103161.75;5013030;28;20088;-78
2022/01/13 02:29:08;;;;;;;15.53;10.33;;;;;;;1.19;69.66;103166.03;5028864;28;20144;-79
2022/01/13 02:31:35;;;;;;;14.07;10.83;;;;;;;1.34;68.96;103194.72;5028831;28;20049;-78
2022/01/13 02:34:04;;;;;;;18.53;11.37;;;;;;;1.42;69.08;103203.38;5012122;28;20045;-80
2022/01/13 02:36:32;;;;;;;15.10;11.40;;;;;;;1.16;69.81;103187.88;5028056;28;20678;-78
2022/01/13 02:39:00;;;;;;;18.10;12.40;;;;;;;1.23;69.33;103194.78;5028109;28;20535;-78
2022/01/13 02:41:27;;;;;;;13.33;10.63;;;;;;;1.24;69.14;103195.69;5012033;28;20069;-78
2022/01/13 02:43:58;;;;;;;17.73;11.97;;;;;;;1.18;68.80;103180.03;5029411;28;20044;-79
2022/01/13 02:49:08;;;;;;;14.10;11.03;;;;;;;1.18;68.68;103180.88;5030973;28;20056;-80
2022/01/13 02:51:36;;;;;;;16.60;10.05;;;;;;;1.34;68.26;103215.66;5032940;28;20396;-78
2022/01/13 02:54:04;;;;;;;12.27;9.80;;;;;;;1.49;68.00;103210.28;5028518;28;20595;-78
2022/01/13 02:56:32;;;;;;;14.57;9.70;;;;;;;1.05;68.32;103142.63;5027279;28;20136;-78
2022/01/13 02:58:59;;;;;;;15.47;10.87;;;;;;;0.85;67.55;103124.50;5029017;28;20515;-78
2022/01/13 03:01:25;;;;;;;15.17;10.17;;;;;;;1.30;67.34;103198.22;5011402;28;20049;-79
2022/01/13 03:03:53;;;;;;;13.10;11.10;;;;;;;1.17;68.31;103180.91;5027243;28;20076;-78
2022/01/13 03:06:27;;;;;;;16.37;11.87;;;;;;;1.26;67.97;103199.13;5027899;28;20051;-79
2022/01/13 03:08:53;;;;;;;15.50;11.20;;;;;;;1.29;68.09;103204.38;5013027;28;20072;-78
2022/01/13 03:11:24;;;;;;;15.03;10.60;;;;;;;1.17;68.86;103176.53;5031080;28;20084;-78
2022/01/13 03:13:50;;;;;;;15.07;11.87;;;;;;;1.13;68.50;103160.88;5030942;28;20052;-78
2022/01/13 03:16:17;;;;;;;14.90;10.50;;;;;;;1.09;67.32;103153.94;5030960;28;20053;-78
2022/01/13 03:18:48;;;;;;;15.80;10.32;;;;;;;1.16;67.38;103159.09;5047354;28;20547;-77
2022/01/13 03:21:15;;;;;;;16.37;10.47;;;;;;;1.11;68.34;103163.50;5047142;28;20049;-77
2022/01/13 03:23:42;;;;;;;18.13;11.80;;;;;;;1.19;68.27;103181.75;5047307;28;20047;-77
2022/01/13 03:26:09;;;;;;;13.93;10.50;;;;;;;1.22;68.24;103179.13;5030357;28;20455;-77
2022/01/13 03:28:39;;;;;;;17.00;10.70;;;;;;;1.30;68.86;103184.28;5046924;28;20144;-79
2022/01/13 03:31:07;;;;;;;15.10;11.27;;;;;;;1.03;69.00;103149.63;5030257;28;20072;-78
2022/01/13 03:33:35;;;;;;;14.63;10.83;;;;;;;0.98;69.24;103157.50;5047087;28;20083;-78
2022/01/13 03:36:04;;;;;;;15.87;11.73;;;;;;;0.89;69.28;103156.72;5046873;28;20174;-77
2022/01/13 03:38:31;;;;;;;13.27;10.37;;;;;;;0.70;68.93;103116.75;5030176;28;20159;-78
2022/01/13 03:40:57;;;;;;;15.30;10.63;;;;;;;1.16;68.74;103192.25;5030398;28;20049;-78
2022/01/13 03:43:24;;;;;;;12.87;10.43;;;;;;;1.22;69.22;103179.13;5046942;28;20477;-78
2022/01/13 03:45:51;;;;;;;14.60;10.77;;;;;;;1.11;68.85;103183.56;5046782;28;20061;-80
2022/01/13 03:48:18;;;;;;;16.67;11.13;;;;;;;0.94;68.65;103144.47;5030281;28;20140;-79
2022/01/13 03:50:47;;;;;;;14.23;10.47;;;;;;;0.88;68.35;103140.16;5046661;28;20048;-78
2022/01/13 03:53:28;;;;;;;16.07;11.67;;;;;;;1.05;69.18;103166.19;5047020;28;20128;-79
2022/01/13 03:56:01;;;;;;;16.55;11.43;;;;;;;1.09;69.03;103169.63;5046686;28;20489;-79
2022/01/13 03:58:59;;;;;;;14.67;10.60;;;;;;;1.08;68.61;103153.06;5046528;28;20087;-79
2022/01/13 04:01:37;;;;;;;21.23;11.07;;;;;;;1.22;67.84;103156.44;5046578;28;20057;-78
2022/01/13 04:04:04;;;;;;;14.13;10.93;;;;;;;0.89;68.21;103110.50;5046412;28;20053;-79
2022/01/13 04:06:40;;;;;;;13.07;10.33;;;;;;;1.10;68.49;103176.63;5029424;28;20063;-79
2022/01/13 04:09:20;;;;;;;15.17;11.03;;;;;;;0.96;68.14;103148.81;5025474;28;20556;-79
2022/01/13 04:11:47;;;;;;;13.60;10.00;;;;;;;1.11;68.81;103183.56;5026327;28;20089;-80
2022/01/13 04:14:13;;;;;;;13.33;10.50;;;;;;;1.16;68.92;103198.34;5009936;28;20580;-79
2022/01/13 04:16:40;;;;;;;10.87;9.50;;;;;;;0.80;68.92;103141.94;5026930;28;20401;-79
2022/01/13 04:19:07;;;;;;;15.10;10.43;;;;;;;1.22;69.19;103207.91;5010155;28;20140;-79
2022/01/13 04:21:37;;;;;;;15.47;11.17;;;;;;;1.17;68.89;103194.88;5009573;28;20452;-78
2022/01/13 04:24:05;;;;;;;12.80;10.10;;;;;;;1.22;68.92;103205.28;5026325;28;20050;-79
2022/01/13 04:26:34;;;;;;;16.73;10.67;;;;;;;0.68;69.25;103121.13;5026267;28;20052;-80
2022/01/13 04:30:00;;;;;;;15.03;12.00;;;;;;;1.10;69.00;103192.31;5009971;28;20084;-79
2022/01/13 04:31:51;;;;;;;15.03;10.57;;;;;;;1.19;69.50;103203.56;5020204;28;20127;-80
2022/01/13 04:34:18;;;;;;;16.50;11.10;;;;;;;1.15;69.69;103201.00;5026146;28;20503;-79
2022/01/13 04:36:45;;;;;;;14.60;11.27;;;;;;;0.99;69.36;103190.63;5025690;28;20045;-80
2022/01/13 04:39:14;;;;;;;16.97;11.70;;;;;;;0.91;69.68;103176.75;5009708;28;20088;-80
2022/01/13 04:41:44;;;;;;;11.63;10.43;;;;;;;1.10;69.17;103218.47;5025904;28;20100;-80
2022/01/13 04:44:15;;;;;;;14.70;10.60;;;;;;;1.10;69.83;103223.72;5026884;28;20095;-79
2022/01/13 04:46:43;;;;;;;15.47;10.10;;;;;;;1.01;69.20;103209.78;5025989;28;20061;-79
2022/01/13 04:49:11;;;;;;;18.03;12.30;;;;;;;0.96;69.42;103206.34;5025791;28;20560;-79
2022/01/13 04:51:40;;;;;;;14.77;10.63;;;;;;;1.05;69.79;103227.22;5025552;28;20132;-80
2022/01/13 04:54:08;;;;;;;21.63;12.33;;;;;;;1.01;69.66;103227.25;5025576;28;20051;-79
2022/01/13 04:59:05;;;;;;;16.00;10.87;;;;;;;0.01;69.92;103063.19;5026630;28;20045;-80
2022/01/13 05:01:31;;;;;;;15.53;11.83;;;;;;;0.88;70.24;103225.59;5008958;28;20527;-79
2022/01/13 05:03:58;;;;;;;14.57;11.27;;;;;;;0.82;70.13;103235.19;5009450;28;20131;-79
2022/01/13 05:06:26;;;;;;;14.63;9.97;;;;;;;0.74;70.25;103215.22;5009293;28;20049;-78
2022/01/13 05:08:55;;;;;;;13.73;10.30;;;;;;;0.70;69.75;103221.34;5027488;28;20053;-79
2022/01/13 05:11:23;;;;;;;13.57;10.27;;;;;;;-0.06;69.29;103095.44;5045500;28;20049;-80
2022/01/13 05:13:50;;;;;;;14.93;12.50;;;;;;;0.70;69.45;103219.59;5045430;28;20128;-78
2022/01/13 05:16:24;;;;;;;15.47;12.10;;;;;;;0.71;69.93;103230.94;5044989;28;20136;-80
2022/01/13 05:24:07;;;;;;;13.20;10.07;;;;;;;0.63;69.40;103244.91;5026563;28;20075;-79
2022/01/13 05:26:34;;;;;;;14.70;10.67;;;;;;;0.37;69.69;103218.03;5045546;28;20499;-79
2022/01/13 05:29:02;;;;;;;13.00;10.23;;;;;;;0.55;70.07;103249.28;5046938;28;20540;-79
2022/01/13 05:31:28;;;;;;;15.00;10.27;;;;;;;0.52;69.75;103245.84;5045829;28;20151;-80
2022/01/13 05:33:55;;;;;;;13.60;10.50;;;;;;;0.43;70.23;103246.75;5031508;28;20047;-79
2022/01/13 05:36:22;;;;;;;15.37;10.13;;;;;;;0.49;69.33;103246.72;5045326;28;20137;-78
2022/01/13 05:38:50;;;;;;;16.67;10.13;;;;;;;0.47;69.06;103264.16;5028202;28;20564;-77
2022/01/13 05:41:16;;;;;;;15.57;10.60;;;;;;;0.40;69.74;103236.31;5009762;28;20225;-76
2022/01/13 05:43:43;;;;;;;14.77;10.57;;;;;;;0.52;69.34;103251.94;5034525;28;20703;-77
2022/01/13 05:46:10;;;;;;;15.27;10.33;;;;;;;0.46;70.00;103256.31;5006340;28;20334;-78
2022/01/13 05:48:37;;;;;;;14.23;10.83;;;;;;;0.57;69.82;103244.94;5006127;28;20501;-78
2022/01/13 05:51:06;;;;;;;15.63;9.97;;;;;;;0.41;69.12;103217.13;5006884;28;20053;-80
2022/01/13 05:53:32;;;;;;;15.60;10.20;;;;;;;0.68;66.87;103259.69;5039287;28;20059;-77
2022/01/13 05:55:59;;;;;;;11.13;8.73;;;;;;;0.76;66.34;103256.16;5022698;28;20136;-77
2022/01/13 05:58:30;;;;;;;19.23;9.57;;;;;;;0.76;65.25;103250.06;5007322;28;20053;-78
2022/01/13 06:00:57;;;;;;;11.57;8.90;;;;;;;0.72;64.57;103250.97;5006531;28;20573;-79
2022/01/13 06:03:24;;;;;;;11.93;9.57;;;;;;;0.79;65.41;103255.28;5022958;28;20089;-79
2022/01/13 06:05:50;;;;;;;15.17;9.97;;;;;;;0.84;66.22;103264.81;5006470;28;20049;-79
2022/01/13 06:08:17;;;;;;;12.73;9.10;;;;;;;0.90;65.75;103266.56;5023030;28;20498;-79
2022/01/13 06:10:46;;;;;;;15.97;8.73;;;;;;;0.50;66.24;103217.09;5026275;28;20048;-80
2022/01/13 06:13:13;;;;;;;13.17;9.47;;;;;;;0.41;66.29;103232.81;5025194;28;20084;-79
2022/01/13 06:15:40;;;;;;;12.63;10.30;;;;;;;0.34;66.94;103223.25;5022290;28;20045;-80
2022/01/13 06:18:15;;;;;;;14.33;9.93;;;;;;;0.68;67.87;103284.13;5006038;28;20073;-80
2022/01/13 06:20:43;;;;;;;13.63;10.20;;;;;;;0.07;67.41;103198.97;5023715;28;20056;-78
2022/01/13 06:23:11;;;;;;;14.20;10.50;;;;;;;0.31;67.22;103254.63;5022757;28;20489;-79
2022/01/13 06:25:38;;;;;;;12.47;8.93;;;;;;;0.53;66.95;103292.88;5024236;28;20266;-79
2022/01/13 06:28:06;;;;;;;16.20;9.17;;;;;;;0.50;66.40;103286.78;5009517;28;20057;-79
2022/01/13 06:30:42;;;;;;;16.27;9.50;;;;;;;0.53;65.76;103300.72;5008641;28;20049;-79
2022/01/13 06:33:08;;;;;;;12.43;10.13;;;;;;;0.09;65.83;103246.84;5026359;28;20055;-80
2022/01/13 06:35:36;;;;;;;14.40;8.80;;;;;;;0.41;65.83;103314.72;5010028;28;20061;-78
2022/01/13 06:38:03;;;;;;;14.00;9.40;;;;;;;0.51;65.85;103336.47;5008864;28;20053;-78
2022/01/13 06:40:30;;;;;;;13.90;10.60;;;;;;;0.39;66.51;103315.59;5026225;28;20045;-79
2022/01/13 06:42:56;;;;;;;14.83;9.97;;;;;;;0.51;66.30;103346.03;5025939;28;20049;-79
2022/01/13 06:45:26;;;;;;;15.83;11.07;;;;;;;0.43;66.77;103338.22;5010090;28;20045;-78
2022/01/13 06:47:53;;;;;;;15.60;10.83;;;;;;;-0.48;66.58;103206.94;5009949;28;20057;-80
2022/01/13 06:50:20;;;;;;;15.43;10.73;;;;;;;0.38;67.34;103353.03;5010099;28;20600;-80
2022/01/13 06:52:48;;;;;;;30.60;17.47;;;;;;;0.26;67.60;103338.25;5026169;28;20448;-80
2022/01/13 06:55:15;;;;;;;22.57;13.70;;;;;;;0.28;67.94;103346.09;5014458;28;20085;-79
2022/01/13 06:57:41;;;;;;;19.03;12.10;;;;;;;0.34;68.22;103359.13;5009337;28;20136;-79
2022/01/13 07:00:27;;;;;;;17.33;12.23;;;;;;;0.40;67.65;103346.94;5008547;28;20104;-79
2022/01/13 07:02:57;;;;;;;20.20;10.60;;;;;;;0.03;67.65;103279.97;5034943;28;20054;-78
2022/01/13 07:05:25;;;;;;;21.33;9.00;;;;;;;0.10;67.24;103316.53;5010693;28;20080;-77
2022/01/13 07:07:51;;;;;;;11.07;8.67;;;;;;;0.15;67.90;103340.91;5027379;28;20045;-78
2022/01/13 07:10:18;;;;;;;15.77;10.37;;;;;;;0.28;67.78;103349.56;5024296;28;20044;-79
2022/01/13 07:12:44;;;;;;;16.70;9.67;;;;;;;0.27;68.14;103350.47;5047059;28;20450;-80
2022/01/13 07:15:12;;;;;;;18.97;11.10;;;;;;;0.39;68.10;103360.03;5015376;28;20572;-77
2022/01/13 07:17:39;;;;;;;13.43;9.70;;;;;;;0.44;68.31;103368.72;5028864;28;20088;-79
2022/01/13 07:20:07;;;;;;;16.17;9.77;;;;;;;0.12;67.94;103325.25;5011209;28;20083;-77
2022/01/13 07:22:33;;;;;;;18.53;10.60;;;;;;;0.48;67.69;103353.88;5010811;28;20053;-80
2022/01/13 07:25:02;;;;;;;14.70;9.50;;;;;;;0.23;65.32;103311.28;5027619;28;20152;-79
2022/01/13 07:27:29;;;;;;;23.33;9.83;;;;;;;0.21;64.93;103304.28;5010559;28;20132;-79
2022/01/13 07:29:58;;;;;;;13.53;8.87;;;;;;;0.48;64.60;103331.22;5011138;28;20552;-79
2022/01/13 07:32:25;;;;;;;19.07;10.13;;;;;;;0.29;65.29;103292.94;5027030;28;20049;-79
2022/01/13 07:34:52;;;;;;;13.30;9.63;;;;;;;0.74;65.90;103345.97;5011225;28;20076;-78
2022/01/13 07:37:20;;;;;;;19.33;11.63;;;;;;;0.67;65.55;103339.00;5010490;28;20378;-80
2022/01/13 07:39:50;;;;;;;18.02;11.95;;;;;;;0.69;65.68;103352.97;5010950;28;20764;-78
2022/01/13 07:42:22;;;;;;;20.77;10.40;;;;;;;0.84;65.14;103376.44;5008327;28;20292;-78
2022/01/13 07:44:49;;;;;;;;;;;;;;;0.89;65.76;103384.25;5009284;28;20052;-80
2022/01/13 07:47:16;;;;;;;12.97;10.53;;;;;;;0.90;65.33;103368.56;5008743;28;20024;-78
2022/01/13 07:49:42;;;;;;;15.53;10.40;;;;;;;1.08;64.89;103382.44;5008601;28;20544;-79
2022/01/13 07:52:10;;;;;;;13.93;10.60;;;;;;;0.35;65.22;103251.13;5008919;28;20504;-79
2022/01/13 07:54:36;;;;;;;14.00;10.00;;;;;;;1.17;65.06;103364.09;5008862;28;20049;-80
2022/01/13 07:57:06;;;;;;;14.73;10.10;;;;;;;1.24;65.33;103376.25;5009014;28;20068;-79
2022/01/13 07:59:35;;;;;;;16.80;10.97;;;;;;;1.19;65.67;103349.22;5010194;28;20502;-77
2022/01/13 08:02:02;;;;;;;17.17;10.00;;;;;;;1.25;64.26;103359.66;5009862;28;20524;-78
2022/01/13 08:04:29;;;;;;;17.60;8.90;;;;;;;1.35;62.40;103376.19;5009686;28;20512;-78
2022/01/13 08:06:55;;;;;;;12.27;9.00;;;;;;;1.27;61.29;103356.16;5009516;28;20520;-79
2022/01/13 08:09:23;;;;;;;12.60;7.93;;;;;;;1.56;60.89;103380.44;5015956;28;20056;-80
2022/01/13 08:11:50;;;;;;;12.33;8.70;;;;;;;1.60;59.95;103375.16;5045814;28;20409;-80
2022/01/13 08:14:16;;;;;;;13.07;9.07;;;;;;;1.73;59.14;103396.03;5047458;28;20104;-79
2022/01/13 08:16:47;;;;;;;16.13;9.13;;;;;;;1.67;58.45;103368.09;5046028;28;20143;-78
2022/01/13 08:22:00;;;;;;;11.93;8.90;;;;;;;1.79;57.55;103375.88;5047271;28;20402;-78
2022/01/13 08:24:27;;;;;;;15.07;9.00;;;;;;;1.95;56.98;103388.88;5046874;28;20080;-79
2022/01/13 08:26:53;;;;;;;14.60;8.13;;;;;;;2.07;57.40;103404.47;5029999;28;20053;-79
2022/01/13 08:29:20;;;;;;;11.57;8.30;;;;;;;1.98;57.50;103373.13;5029794;28;20063;-79
2022/01/13 08:31:50;;;;;;;14.20;8.47;;;;;;;2.19;56.93;103399.13;5030371;28;20083;-79
2022/01/13 08:34:21;;;;;;;14.33;9.90;;;;;;;2.34;56.69;103412.09;5032191;28;20045;-78
2022/01/13 08:36:49;;;;;;;14.33;9.23;;;;;;;2.03;56.35;103355.59;5024396;28;20069;-80
2022/01/13 08:39:16;;;;;;;13.70;8.80;;;;;;;2.49;55.46;103433.81;5029303;28;20049;-78
2022/01/13 08:41:43;;;;;;;11.03;7.33;;;;;;;2.55;54.44;103436.38;5045759;28;20049;-79
2022/01/13 08:44:10;;;;;;;15.07;8.63;;;;;;;2.53;54.36;103423.28;5045333;28;20503;-79
2022/01/13 08:46:37;;;;;;;16.03;8.40;;;;;;;2.37;53.60;103382.34;5046788;28;20130;-77
2022/01/13 08:49:09;;;;;;;14.43;7.83;;;;;;;2.72;53.51;103436.22;5045330;28;20136;-78
2022/01/13 08:51:39;;;;;;;11.57;7.60;;;;;;;2.54;52.79;103418.88;5046691;28;20488;-79
2022/01/13 08:54:05;;;;;;;16.63;7.70;;;;;;;2.35;53.11;103390.25;5028700;28;20041;-78
2022/01/13 08:56:32;;;;;;;8.77;7.30;;;;;;;2.67;53.40;103449.38;5028517;28;20045;-80
2022/01/13 08:58:58;;;;;;;9.50;7.43;;;;;;;2.60;52.75;103452.94;5032323;28;20076;-78
2022/01/13 09:01:27;;;;;;;9.97;8.20;;;;;;;2.55;53.12;103454.75;5036893;28;20042;-78
2022/01/13 09:03:54;;;;;;;13.87;7.50;;;;;;;2.16;52.91;103393.94;5007996;28;20061;-78
2022/01/13 09:06:21;;;;;;;11.20;8.27;;;;;;;2.53;53.83;103457.38;5025150;28;20053;-79
2022/01/13 09:08:48;;;;;;;9.23;7.67;;;;;;;2.38;54.74;103456.63;5009660;28;20042;-78
2022/01/13 09:11:17;;;;;;;12.10;9.20;;;;;;;2.27;54.73;103449.72;5028031;28;20481;-79
2022/01/13 09:13:44;;;;;;;11.10;9.40;;;;;;;2.39;55.79;103484.59;5028426;28;20441;-78
2022/01/13 09:16:16;;;;;;;13.47;10.70;;;;;;;2.41;56.03;103478.47;5050910;28;20049;-77
2022/01/13 09:19:07;;;;;;;15.97;10.20;;;;;;;2.52;55.78;103479.22;5028497;28;20301;-79
2022/01/13 09:21:39;;;;;;;16.50;12.20;;;;;;;2.48;56.73;103474.91;5028463;28;20075;-79
2022/01/13 09:24:08;;;;;;;15.63;10.87;;;;;;;2.47;57.09;103472.28;5045927;28;20405;-80
2022/01/13 09:26:35;;;;;;;13.43;11.23;;;;;;;2.54;57.43;103472.19;5045598;28;20072;-78
2022/01/13 09:29:03;;;;;;;21.60;12.53;;;;;;;2.63;56.29;103467.78;5027712;28;20397;-81
2022/01/13 09:31:31;;;;;;;17.17;12.47;;;;;;;1.87;56.80;103334.78;5044716;28;20053;-80
2022/01/13 09:34:01;;;;;;;20.47;13.33;;;;;;;2.61;57.26;103451.19;5044791;28;20084;-80
2022/01/13 09:36:29;;;;;;;16.53;12.67;;;;;;;2.77;57.01;103460.63;5027678;28;20884;-80
2022/01/13 09:38:59;;;;;;;25.50;14.60;;;;;;;2.75;56.31;103437.03;5044670;28;20095;-79
2022/01/13 09:41:30;;;;;;;18.47;12.63;;;;;;;2.63;55.80;103412.69;5028095;28;20048;-79
2022/01/13 09:43:59;;;;;;;15.77;11.52;;;;;;;2.86;56.28;103439.53;5044397;28;20419;-80
2022/01/13 09:46:27;;;;;;;20.33;13.87;;;;;;;2.22;56.40;103315.22;5044470;28;20107;-79
2022/01/13 09:48:55;;;;;;;17.03;13.43;;;;;;;3.20;55.33;103466.28;5044244;28;20296;-79
2022/01/13 09:51:26;;;;;;;18.30;13.43;;;;;;;3.27;55.21;103463.56;5044158;28;20106;-79
2022/01/13 09:53:53;;;;;;;23.97;13.37;;;;;;;2.93;55.44;103387.84;5028316;28;20128;-80
2022/01/13 09:56:20;;;;;;;20.27;12.43;;;;;;;3.53;53.99;103477.22;5044542;28;20439;-79
2022/01/13 09:58:47;;;;;;;15.17;12.97;;;;;;;3.38;54.78;103424.91;5028170;28;20048;-79
2022/01/13 10:01:14;;;;;;;18.27;12.57;;;;;;;3.58;53.83;103450.88;5044226;28;20628;-79
2022/01/13 10:03:42;;;;;;;16.43;12.23;;;;;;;3.10;53.52;103357.00;5043841;28;20144;-79
2022/01/13 10:06:12;;;;;;;20.40;12.63;;;;;;;3.79;53.63;103463.72;5030446;28;20041;-79
2022/01/13 10:08:57;;;;;;;15.90;11.27;;;;;;;3.78;52.62;103468.97;5047972;28;20500;-78
2022/01/13 10:11:35;;;;;;;14.93;11.40;;;;;;;3.85;53.20;103473.25;5012340;28;20056;-79
2022/01/13 10:17:10;;;;;;;22.13;12.33;;;;;;;3.82;52.69;103452.28;5018163;28;20049;-78
2022/01/13 10:19:43;;;;;;;19.33;11.80;;;;;;;3.84;53.25;103440.00;5010651;28;20060;-80
2022/01/13 10:22:25;;;;;;;23.77;11.87;;;;;;;3.43;53.45;103373.19;5026464;28;20049;-79
2022/01/13 10:24:54;;;;;;;22.23;12.30;;;;;;;4.01;52.96;103451.13;5026765;28;20135;-80
2022/01/13 10:27:33;;;;;;;20.10;12.27;;;;;;;3.60;53.13;103375.56;5024671;28;20140;-80
2022/01/13 10:30:05;;;;;;;22.37;13.80;;;;;;;4.09;53.59;103443.09;5010480;28;20073;-80
2022/01/13 10:32:37;;;;;;;13.70;12.13;;;;;;;4.06;52.77;103428.25;5009512;28;20056;-79
2022/01/13 10:35:07;;;;;;;19.17;13.00;;;;;;;4.33;52.93;103456.75;5026182;28;20089;-79
2022/01/13 10:37:36;;;;;;;18.23;13.13;;;;;;;4.39;52.16;103461.88;5025975;28;20137;-79
2022/01/13 10:40:13;;;;;;;24.60;12.30;;;;;;;4.47;52.71;103458.22;5026269;28;20373;-79
2022/01/13 10:45:35;;;;;;;17.08;12.32;;;;;;;4.63;52.52;103461.44;5025870;28;20456;-79
2022/01/13 10:48:15;;;;;;;18.77;12.90;;;;;;;4.46;52.03;103432.81;5025958;28;20403;-79
2022/01/13 10:51:08;;;;;;;18.37;13.37;;;;;;;4.19;53.03;103364.94;5026709;28;20159;-80
2022/01/13 10:53:44;;;;;;;17.47;11.97;;;;;;;4.18;53.10;103368.47;5004164;28;20057;-78
2022/01/13 10:56:14;;;;;;;20.10;11.70;;;;;;;4.63;53.07;103444.78;5024533;28;20041;-79
2022/01/13 10:58:49;;;;;;;16.50;13.63;;;;;;;4.66;52.96;103448.25;5026177;28;20085;-79
2022/01/13 11:01:20;;;;;;;14.07;12.07;;;;;;;4.07;53.65;103334.47;5024889;28;20049;-79
2022/01/13 11:03:48;;;;;;;15.53;12.37;;;;;;;4.82;53.59;103443.53;5022388;28;20456;-79
2022/01/13 11:06:18;;;;;;;18.80;12.50;;;;;;;4.74;53.47;103387.56;5025043;28;20058;-79
2022/01/13 11:08:47;;;;;;;14.43;11.57;;;;;;;5.04;51.70;103409.75;5025749;28;20116;-79
2022/01/13 11:11:27;;;;;;;21.97;12.73;;;;;;;5.14;51.75;103406.03;5044566;28;20061;-79
2022/01/13 11:14:10;;;;;;;16.40;13.47;;;;;;;5.33;51.10;103431.97;5045470;28;20560;-79
2022/01/13 11:16:38;;;;;;;17.20;12.63;;;;;;;5.50;51.55;103414.03;5044890;28;20481;-79
2022/01/13 11:19:06;;;;;;;17.67;11.93;;;;;;;5.53;51.00;103413.09;5012456;28;20049;-79
2022/01/13 11:21:33;;;;;;;18.33;13.37;;;;;;;5.54;50.41;103399.03;5044815;28;20048;-79
2022/01/13 11:24:01;;;;;;;17.63;13.20;;;;;;;4.76;50.51;103255.94;5044886;28;20114;-78
2022/01/13 11:26:27;;;;;;;22.50;13.93;;;;;;;4.83;50.79;103295.25;5046684;28;20521;-78
2022/01/13 11:28:56;;;;;;;19.70;13.73;;;;;;;4.96;51.42;103310.78;5028797;28;20065;-80
2022/01/13 11:31:23;;;;;;;18.53;14.17;;;;;;;5.39;52.09;103384.44;5043403;28;20063;-80
2022/01/13 11:33:50;;;;;;;17.37;13.63;;;;;;;5.43;52.24;103398.41;5027089;28;20484;-81
2022/01/13 11:36:20;;;;;;;17.70;13.07;;;;;;;5.20;52.36;103333.94;5043638;28;20130;-79
2022/01/13 11:39:02;;;;;;;18.47;13.20;;;;;;;5.52;52.94;103390.28;5043741;28;20075;-79
2022/01/13 11:41:31;;;;;;;22.73;12.45;;;;;;;5.45;52.92;103375.50;5044898;28;20146;-80
2022/01/13 11:44:17;;;;;;;15.60;12.80;;;;;;;5.42;52.33;103365.91;5044271;28;20140;-80
2022/01/13 11:46:45;;;;;;;17.57;13.97;;;;;;;5.64;52.25;103395.25;5027981;28;20057;-81
2022/01/13 11:49:18;;;;;;;19.90;13.20;;;;;;;5.51;52.63;103355.16;5045271;28;20248;-80
2022/01/13 11:52:10;;;;;;;23.77;14.27;;;;;;;5.79;52.23;103394.88;5046990;28;20049;-77
2022/01/13 11:54:38;;;;;;;21.77;13.33;;;;;;;5.52;51.83;103348.97;5044421;28;20540;-80
2022/01/13 11:57:27;;;;;;;17.93;13.63;;;;;;;5.72;52.13;103390.66;5030133;28;20139;-81
2022/01/13 12:00:00;;;;;;;20.10;14.30;;;;;;;5.68;52.19;103396.03;5024444;28;20050;-79
2022/01/13 12:02:29;;;;;;;25.80;14.27;;;;;;;5.37;52.29;103349.34;5023667;28;20120;-79
2022/01/13 12:05:16;;;;;;;18.63;13.77;;;;;;;5.71;51.79;103393.34;5014951;28;20057;-81
2022/01/13 12:07:54;;;;;;;22.43;14.47;;;;;;;4.52;51.73;103183.69;5003180;28;20509;-79
2022/01/13 12:10:20;;;;;;;19.47;14.73;;;;;;;5.84;52.05;103393.91;5015410;28;20063;-80